createdAt,value
2023-02-19T00:00:04.071Z,55.80
2023-02-19T00:02:32.437Z,55.16
2023-02-19T00:05:00.921Z,56.74
2023-02-19T00:07:29.333Z,55.58
2023-02-19T00:09:57.726Z,55.33
2023-02-19T00:12:26.152Z,54.82
2023-02-19T00:14:55.578Z,54.33
2023-02-19T00:17:24.010Z,55.34
2023-02-19T00:19:52.362Z,57.35
2023-02-19T00:22:20.881Z,54.72
2023-02-19T00:24:49.798Z,58.15
2023-02-19T00:27:18.242Z,56.37
2023-02-19T00:29:46.640Z,55.04
2023-02-19T00:32:15.030Z,56.39
2023-02-19T00:34:43.497Z,54.88
2023-02-19T00:37:11.920Z,55.54
2023-02-19T00:39:40.404Z,55.39
2023-02-19T00:42:08.772Z,55.04
2023-02-19T00:44:37.142Z,56.44
2023-02-19T00:47:05.901Z,55.71
2023-02-19T00:49:34.368Z,56.71
2023-02-19T00:52:02.890Z,55.95
2023-02-19T00:54:31.541Z,55.67
2023-02-19T00:57:00.097Z,54.14
2023-02-19T00:59:28.472Z,54.91
2023-02-19T01:01:56.961Z,54.60
2023-02-19T01:04:25.411Z,55.85
2023-02-19T01:06:53.998Z,56.10
2023-02-19T01:09:22.434Z,56.14
2023-02-19T01:11:51.979Z,54.57
2023-02-19T01:14:20.459Z,55.24
2023-02-19T01:16:48.817Z,55.74
2023-02-19T01:19:17.215Z,53.68
2023-02-19T01:21:45.626Z,54.51
2023-02-19T01:24:14.135Z,56.10
2023-02-19T01:26:42.952Z,53.68
2023-02-19T01:29:11.371Z,54.05
2023-02-19T01:31:42.183Z,54.43
2023-02-19T01:34:12.301Z,55.15
2023-02-19T01:36:40.885Z,55.00
2023-02-19T01:39:11.069Z,55.29
2023-02-19T01:41:41.377Z,55.56
2023-02-19T01:44:15.990Z,56.69
2023-02-19T01:46:51.435Z,57.09
2023-02-19T01:49:40.061Z,55.89
2023-02-19T01:52:27.642Z,55.94
2023-02-19T01:54:56.959Z,54.63
2023-02-19T01:57:28.380Z,54.03
2023-02-19T02:00:08.037Z,55.03
2023-02-19T02:02:37.638Z,55.38
2023-02-19T02:05:14.023Z,54.80
2023-02-19T02:08:01.122Z,53.37
2023-02-19T02:10:29.500Z,54.75
2023-02-19T02:12:58.612Z,53.89
2023-02-19T02:15:35.898Z,53.77
2023-02-19T02:18:30.223Z,55.67
2023-02-19T02:21:18.554Z,55.43
2023-02-19T02:24:17.740Z,53.86
2023-02-19T02:27:17.653Z,53.52
2023-02-19T02:30:26.855Z,53.89
2023-02-19T02:33:22.795Z,54.27
2023-02-19T02:36:18.444Z,54.80
2023-02-19T02:38:48.308Z,54.61
2023-02-19T02:41:17.056Z,53.26
2023-02-19T02:43:45.565Z,52.32
2023-02-19T02:46:21.116Z,53.77
2023-02-19T02:48:53.959Z,53.64
2023-02-19T02:51:41.341Z,54.70
2023-02-19T02:54:41.528Z,56.19
2023-02-19T02:57:14.876Z,56.60
2023-02-19T02:59:44.559Z,56.05
2023-02-19T03:02:24.529Z,55.52
2023-02-19T03:05:34.593Z,53.98
2023-02-19T03:08:15.479Z,56.55
2023-02-19T03:10:59.606Z,55.62
2023-02-19T03:13:51.943Z,54.50
2023-02-19T03:16:44.803Z,55.29
2023-02-19T03:19:19.078Z,54.90
2023-02-19T03:21:53.789Z,54.21
2023-02-19T03:24:45.624Z,55.87
2023-02-19T03:27:16.967Z,56.83
2023-02-19T03:29:48.458Z,56.06
2023-02-19T03:32:38.203Z,56.12
2023-02-19T03:35:11.914Z,56.55
2023-02-19T03:38:07.740Z,55.65
2023-02-19T03:40:47.381Z,55.36
2023-02-19T03:43:21.644Z,54.01
2023-02-19T03:46:01.541Z,54.38
2023-02-19T03:48:34.995Z,55.08
2023-02-19T03:51:24.599Z,53.15
2023-02-19T03:54:13.336Z,53.37
2023-02-19T03:57:01.981Z,53.76
2023-02-19T03:59:45.642Z,53.14
2023-02-19T04:02:20.109Z,54.99
2023-02-19T04:05:07.480Z,53.96
2023-02-19T04:07:41.028Z,53.94
2023-02-19T04:10:10.134Z,54.98
2023-02-19T04:12:43.462Z,54.94
2023-02-19T04:15:17.539Z,54.21
2023-02-19T04:17:54.056Z,53.62
2023-02-19T04:20:24.710Z,53.96
2023-02-19T04:22:53.395Z,55.27
2023-02-19T04:25:23.962Z,53.44
2023-02-19T04:27:52.806Z,52.63
2023-02-19T04:30:21.825Z,52.76
2023-02-19T04:32:50.645Z,52.47
2023-02-19T04:35:19.106Z,51.44
2023-02-19T04:37:47.592Z,54.22
2023-02-19T04:40:16.178Z,54.53
2023-02-19T04:42:44.577Z,55.66
2023-02-19T04:45:13.032Z,53.79
2023-02-19T04:47:41.418Z,54.88
2023-02-19T04:50:10.238Z,54.69
2023-02-19T04:52:39.247Z,54.18
2023-02-19T04:55:08.396Z,55.12
2023-02-19T04:57:36.845Z,54.56
2023-02-19T05:00:05.913Z,54.57
2023-02-19T05:02:34.433Z,55.59
2023-02-19T05:05:04.132Z,57.28
2023-02-19T05:07:33.735Z,55.17
2023-02-19T05:10:02.157Z,55.02
2023-02-19T05:12:31.087Z,53.78
2023-02-19T05:14:59.604Z,57.52
2023-02-19T05:17:28.027Z,57.71
2023-02-19T05:19:56.478Z,55.62
2023-02-19T05:22:24.882Z,56.60
2023-02-19T05:24:53.423Z,56.33
2023-02-19T05:27:21.888Z,55.40
2023-02-19T05:29:50.332Z,54.36
2023-02-19T05:32:18.725Z,55.02
2023-02-19T05:34:47.102Z,53.73
2023-02-19T05:37:16.254Z,55.27
2023-02-19T05:39:44.735Z,55.42
2023-02-19T05:42:15.012Z,56.77
2023-02-19T05:44:43.476Z,56.09
2023-02-19T05:47:12.021Z,54.75
2023-02-19T05:49:40.452Z,54.87
2023-02-19T05:52:08.874Z,54.82
2023-02-19T05:54:37.283Z,55.78
2023-02-19T05:57:05.648Z,57.65
2023-02-19T05:59:34.083Z,55.89
2023-02-19T06:02:02.512Z,56.83
2023-02-19T06:04:30.983Z,59.20
2023-02-19T06:06:59.482Z,59.16
2023-02-19T06:09:28.000Z,56.62
2023-02-19T06:11:57.159Z,55.29
2023-02-19T06:14:25.601Z,54.99
2023-02-19T06:16:54.017Z,54.84
2023-02-19T06:19:22.490Z,54.98
2023-02-19T06:21:51.032Z,54.45
2023-02-19T06:24:19.494Z,56.97
2023-02-19T06:26:47.880Z,56.23
2023-02-19T06:29:16.997Z,56.82
2023-02-19T06:31:45.703Z,55.82
2023-02-19T06:34:14.117Z,54.36
2023-02-19T06:36:42.822Z,56.05
2023-02-19T06:39:11.264Z,55.19
2023-02-19T06:41:39.733Z,54.51
2023-02-19T06:44:08.309Z,56.67
2023-02-19T06:46:37.165Z,55.17
2023-02-19T06:49:05.903Z,57.24
2023-02-19T06:51:34.481Z,56.75
2023-02-19T06:54:03.032Z,56.34
2023-02-19T06:56:37.529Z,57.04
2023-02-19T06:59:13.948Z,54.97
2023-02-19T07:01:43.068Z,55.97
2023-02-19T07:04:12.031Z,56.04
2023-02-19T07:06:40.663Z,55.10
2023-02-19T07:09:10.161Z,54.31
2023-02-19T07:11:39.820Z,54.31
2023-02-19T07:14:17.206Z,53.98
2023-02-19T07:16:47.361Z,55.63
2023-02-19T07:19:16.088Z,53.90
2023-02-19T07:21:44.517Z,57.16
2023-02-19T07:24:13.094Z,57.33
2023-02-19T07:26:41.599Z,56.73
2023-02-19T07:29:10.128Z,55.43
2023-02-19T07:31:38.782Z,57.38
2023-02-19T07:34:07.766Z,59.13
2023-02-19T07:36:36.234Z,58.32
2023-02-19T07:39:04.986Z,57.13
2023-02-19T07:41:33.508Z,59.10
2023-02-19T07:44:01.963Z,57.46
2023-02-19T07:46:30.651Z,57.88
2023-02-19T07:49:00.139Z,59.03
2023-02-19T07:51:28.532Z,57.42
2023-02-19T07:53:57.522Z,57.32
2023-02-19T07:56:25.896Z,57.62
2023-02-19T07:58:54.374Z,56.18
2023-02-19T08:01:42.537Z,57.15
2023-02-19T08:04:13.706Z,56.64
2023-02-19T08:06:42.656Z,57.89
2023-02-19T08:09:11.764Z,61.30
2023-02-19T08:11:58.644Z,59.26
2023-02-19T08:14:27.801Z,59.69
2023-02-19T08:16:56.733Z,60.49
2023-02-19T08:19:25.549Z,58.65
2023-02-19T08:21:54.013Z,56.93
2023-02-19T08:24:22.430Z,57.03
2023-02-19T08:26:52.171Z,57.02
2023-02-19T08:29:20.658Z,55.97
2023-02-19T08:31:49.233Z,57.08
2023-02-19T08:34:17.761Z,58.67
2023-02-19T08:36:46.232Z,57.74
2023-02-19T08:39:14.623Z,58.90
2023-02-19T08:41:43.114Z,56.20
2023-02-19T08:44:11.530Z,57.86
2023-02-19T08:46:39.994Z,56.44
2023-02-19T08:49:08.421Z,57.12
2023-02-19T08:51:36.868Z,55.84
2023-02-19T08:54:05.320Z,55.51
2023-02-19T08:56:33.758Z,55.35
2023-02-19T08:59:02.181Z,57.57
2023-02-19T09:01:30.745Z,55.30
2023-02-19T09:03:59.370Z,55.66
2023-02-19T09:06:27.934Z,57.13
2023-02-19T09:08:56.471Z,58.25
2023-02-19T09:11:24.834Z,57.85
2023-02-19T09:13:56.258Z,56.63
2023-02-19T09:16:24.855Z,56.68
2023-02-19T09:18:57.158Z,56.97
2023-02-19T09:21:25.706Z,57.68
2023-02-19T09:23:54.196Z,56.96
2023-02-19T09:26:23.525Z,55.23
2023-02-19T09:28:51.995Z,54.33
2023-02-19T09:31:20.509Z,54.36
2023-02-19T09:33:49.018Z,54.25
2023-02-19T09:36:18.703Z,55.38
2023-02-19T09:38:47.162Z,55.78
2023-02-19T09:41:29.049Z,55.66
2023-02-19T09:44:03.551Z,55.67
2023-02-19T09:46:36.998Z,55.05
2023-02-19T09:49:11.269Z,54.16
2023-02-19T09:51:44.113Z,56.15
2023-02-19T09:54:22.675Z,56.30
2023-02-19T09:56:53.130Z,55.90
2023-02-19T09:59:44.120Z,55.90
2023-02-19T10:02:23.169Z,55.36
2023-02-19T10:04:52.775Z,56.01
2023-02-19T10:07:30.250Z,55.68
2023-02-19T10:10:14.150Z,57.81
2023-02-19T10:12:52.088Z,55.95
2023-02-19T10:15:25.093Z,56.02
2023-02-19T10:17:53.894Z,55.51
2023-02-19T10:20:26.536Z,53.67
2023-02-19T10:23:06.506Z,53.91
2023-02-19T10:25:35.341Z,55.62
2023-02-19T10:28:04.922Z,55.37
2023-02-19T10:30:35.520Z,55.46
2023-02-19T10:33:15.354Z,54.76
2023-02-19T10:36:03.342Z,55.00
2023-02-19T10:38:40.478Z,54.63
2023-02-19T10:41:17.824Z,54.68
2023-02-19T10:44:18.696Z,55.49
2023-02-19T10:46:49.873Z,55.83
2023-02-19T10:49:35.486Z,54.05
2023-02-19T10:52:20.476Z,54.45
2023-02-19T10:54:56.245Z,53.26
2023-02-19T10:57:33.083Z,51.90
2023-02-19T11:00:16.978Z,52.33
2023-02-19T11:02:45.494Z,52.74
2023-02-19T11:05:20.009Z,52.72
2023-02-19T11:07:52.074Z,53.47
2023-02-19T11:10:22.303Z,54.24
2023-02-19T11:12:53.363Z,53.36
2023-02-19T11:15:27.606Z,52.15
2023-02-19T11:18:00.208Z,51.55
2023-02-19T11:20:29.630Z,53.83
2023-02-19T11:23:03.572Z,51.95
2023-02-19T11:25:33.346Z,52.37
2023-02-19T11:28:24.081Z,52.66
2023-02-19T11:30:52.596Z,53.34
2023-02-19T11:33:27.439Z,52.37
2023-02-19T11:36:29.484Z,51.25
2023-02-19T11:39:03.159Z,51.16
2023-02-19T11:42:09.060Z,51.40
2023-02-19T11:45:16.154Z,51.96
2023-02-19T11:48:03.733Z,51.48
2023-02-19T11:50:54.156Z,52.53
2023-02-19T11:53:28.789Z,52.60
2023-02-19T11:56:19.380Z,50.01
2023-02-19T11:59:17.188Z,49.96
2023-02-19T12:01:48.592Z,50.88
2023-02-19T12:04:32.318Z,49.50
2023-02-19T12:07:34.349Z,49.83
2023-02-19T12:10:36.176Z,49.81
2023-02-19T12:13:33.909Z,49.17
2023-02-19T12:16:09.425Z,49.45
2023-02-19T12:18:52.627Z,49.56
2023-02-19T12:21:27.083Z,50.08
2023-02-19T12:23:58.618Z,49.16
2023-02-19T12:26:47.438Z,49.33
2023-02-19T12:29:24.583Z,48.26
2023-02-19T12:32:27.153Z,49.62
2023-02-19T12:35:13.409Z,50.47
2023-02-19T12:38:00.878Z,50.59
2023-02-19T12:40:43.587Z,49.97
2023-02-19T12:43:18.066Z,48.80
2023-02-19T12:45:49.659Z,48.88
2023-02-19T12:48:30.059Z,48.39
2023-02-19T12:51:11.971Z,49.29
2023-02-19T12:53:49.586Z,48.96
2023-02-19T12:56:27.895Z,48.59
2023-02-19T12:59:05.097Z,47.43
2023-02-19T13:01:43.438Z,48.66
2023-02-19T13:04:25.909Z,48.33
2023-02-19T13:07:01.522Z,47.71
2023-02-19T13:09:36.855Z,47.46
2023-02-19T13:12:14.818Z,47.40
2023-02-19T13:14:48.471Z,46.52
2023-02-19T13:17:19.930Z,46.02
2023-02-19T13:19:52.024Z,47.20
2023-02-19T13:22:58.623Z,46.58
2023-02-19T13:25:45.335Z,46.24
2023-02-19T13:28:38.219Z,46.50
2023-02-19T13:31:28.426Z,47.09
2023-02-19T13:34:41.742Z,47.21
2023-02-19T13:37:11.662Z,46.91
2023-02-19T13:39:52.027Z,45.92
2023-02-19T13:42:27.762Z,46.90
2023-02-19T13:44:58.013Z,48.71
2023-02-19T13:47:56.187Z,49.06
2023-02-19T13:50:34.483Z,49.29
2023-02-19T13:53:40.757Z,49.10
2023-02-19T13:56:34.044Z,49.47
2023-02-19T13:59:23.455Z,49.78
2023-02-19T14:01:55.153Z,49.19
2023-02-19T14:04:23.495Z,49.50
2023-02-19T14:07:04.270Z,49.84
2023-02-19T14:09:43.754Z,50.46
2023-02-19T14:12:18.117Z,49.85
2023-02-19T14:14:51.745Z,49.02
2023-02-19T14:17:25.926Z,50.25
2023-02-19T14:20:17.617Z,50.30
2023-02-19T14:22:46.043Z,52.64
2023-02-19T14:25:38.903Z,50.30
2023-02-19T14:28:10.465Z,50.80
2023-02-19T14:30:51.575Z,50.46
2023-02-19T14:33:32.912Z,51.20
2023-02-19T14:36:06.389Z,50.96
2023-02-19T14:38:45.683Z,50.19
2023-02-19T14:41:16.123Z,49.81
2023-02-19T14:43:48.606Z,48.93
2023-02-19T14:46:32.771Z,49.46
2023-02-19T14:49:28.021Z,50.88
2023-02-19T14:52:00.433Z,49.17
2023-02-19T14:55:09.300Z,48.96
2023-02-19T14:57:45.474Z,50.40
2023-02-19T15:00:27.128Z,49.92
2023-02-19T15:02:57.791Z,48.63
2023-02-19T15:05:36.597Z,50.95
2023-02-19T15:08:11.921Z,49.89
2023-02-19T15:10:42.576Z,50.32
2023-02-19T15:13:17.328Z,49.09
2023-02-19T15:15:46.402Z,48.08
2023-02-19T15:18:23.912Z,49.67
2023-02-19T15:21:00.657Z,51.04
2023-02-19T15:23:31.367Z,51.39
2023-02-19T15:26:00.419Z,49.37
2023-02-19T15:28:34.411Z,48.35
2023-02-19T15:31:03.323Z,47.17
2023-02-19T15:33:31.993Z,49.46
2023-02-19T15:36:07.212Z,50.88
2023-02-19T15:38:36.217Z,50.92
2023-02-19T15:41:05.012Z,51.50
2023-02-19T15:43:49.754Z,50.59
2023-02-19T15:46:20.942Z,49.89
2023-02-19T15:48:49.376Z,50.14
2023-02-19T15:51:44.296Z,50.14
2023-02-19T15:54:36.186Z,49.53
2023-02-19T15:57:09.513Z,49.61
2023-02-19T15:59:46.872Z,50.12
2023-02-19T16:02:15.949Z,49.62
2023-02-19T16:04:45.533Z,49.66
2023-02-19T16:07:27.833Z,49.15
2023-02-19T16:10:07.254Z,50.06
2023-02-19T16:12:35.675Z,50.05
2023-02-19T16:15:20.011Z,48.95
2023-02-19T16:17:48.895Z,50.09
2023-02-19T16:20:22.004Z,49.86
2023-02-19T16:22:51.480Z,50.05
2023-02-19T16:25:37.423Z,51.33
2023-02-19T16:28:25.375Z,50.96
2023-02-19T16:31:00.732Z,51.53
2023-02-19T16:33:46.472Z,51.37
2023-02-19T16:36:34.289Z,52.72
2023-02-19T16:39:09.227Z,52.46
2023-02-19T16:42:01.935Z,54.63
2023-02-19T16:44:31.265Z,54.04
2023-02-19T16:47:23.948Z,53.89
2023-02-19T16:49:52.582Z,54.53
2023-02-19T16:52:21.747Z,53.19
2023-02-19T16:54:50.309Z,52.78
2023-02-19T16:57:23.413Z,51.69
2023-02-19T16:59:51.904Z,50.88
2023-02-19T17:02:24.102Z,52.46
2023-02-19T17:04:55.169Z,51.09
2023-02-19T17:07:23.861Z,50.75
2023-02-19T17:09:52.348Z,50.60
2023-02-19T17:12:22.091Z,49.39
2023-02-19T17:14:50.506Z,50.23
2023-02-19T17:17:19.040Z,49.32
2023-02-19T17:19:47.553Z,49.75
2023-02-19T17:22:17.447Z,49.58
2023-02-19T17:24:46.402Z,48.88
2023-02-19T17:27:15.180Z,48.12
2023-02-19T17:29:43.698Z,48.57
2023-02-19T17:32:14.277Z,48.67
2023-02-19T17:34:42.929Z,49.24
2023-02-19T17:37:11.430Z,49.54
2023-02-19T17:39:40.007Z,50.14
2023-02-19T17:42:08.685Z,49.86
2023-02-19T17:44:37.105Z,48.91
2023-02-19T17:47:06.070Z,48.13
2023-02-19T17:49:36.272Z,48.12
2023-02-19T17:52:04.938Z,47.83
2023-02-19T17:54:34.273Z,48.08
2023-02-19T17:57:02.832Z,48.63
2023-02-19T17:59:31.238Z,47.56
2023-02-19T18:01:59.668Z,48.01
2023-02-19T18:04:28.059Z,47.91
2023-02-19T18:06:57.762Z,48.82
2023-02-19T18:09:26.310Z,47.79
2023-02-19T18:11:54.885Z,47.96
2023-02-19T18:14:23.362Z,48.90
2023-02-19T18:16:51.882Z,49.30
2023-02-19T18:19:21.868Z,50.03
2023-02-19T18:21:50.353Z,49.18
2023-02-19T18:24:19.134Z,49.21
2023-02-19T18:26:47.531Z,49.45
2023-02-19T18:29:16.061Z,48.89
2023-02-19T18:31:44.592Z,48.71
2023-02-19T18:34:19.533Z,49.54
2023-02-19T18:36:49.369Z,48.75
2023-02-19T18:39:17.806Z,48.49
2023-02-19T18:41:47.853Z,48.00
2023-02-19T18:44:23.769Z,48.73
2023-02-19T18:46:52.505Z,47.98
2023-02-19T18:49:21.024Z,48.12
2023-02-19T18:51:49.516Z,48.00
2023-02-19T18:54:24.019Z,48.26
2023-02-19T18:56:52.521Z,47.61
2023-02-19T18:59:21.636Z,47.31
2023-02-19T19:01:52.489Z,48.38
2023-02-19T19:04:21.029Z,48.15
2023-02-19T19:06:49.611Z,48.44
2023-02-19T19:09:18.176Z,49.12
2023-02-19T19:11:46.610Z,49.14
2023-02-19T19:14:15.086Z,49.49
2023-02-19T19:16:44.479Z,49.21
2023-02-19T19:19:14.546Z,49.03
2023-02-19T19:21:43.122Z,48.63
2023-02-19T19:24:12.599Z,48.10
2023-02-19T19:26:45.383Z,48.73
2023-02-19T19:29:16.133Z,48.00
2023-02-19T19:31:45.334Z,47.93
2023-02-19T19:34:14.585Z,47.98
2023-02-19T19:36:43.802Z,47.61
2023-02-19T19:39:13.020Z,48.15
2023-02-19T19:41:41.565Z,48.16
2023-02-19T19:44:10.372Z,47.67
2023-02-19T19:46:45.532Z,47.40
2023-02-19T19:49:18.619Z,47.72
2023-02-19T19:51:47.090Z,47.69
2023-02-19T19:54:15.672Z,47.35
2023-02-19T19:56:46.424Z,47.38
2023-02-19T19:59:17.036Z,47.40
2023-02-19T20:01:50.326Z,47.49
2023-02-19T20:04:20.773Z,47.31
2023-02-19T20:06:49.566Z,46.79
2023-02-19T20:09:19.770Z,47.22
2023-02-19T20:11:50.543Z,47.67
2023-02-19T20:14:20.966Z,47.88
2023-02-19T20:16:50.624Z,47.20
2023-02-19T20:19:20.139Z,47.27
2023-02-19T20:21:51.030Z,47.01
2023-02-19T20:24:25.943Z,46.56
2023-02-19T20:26:59.534Z,46.97
2023-02-19T20:29:29.932Z,46.77
2023-02-19T20:32:00.084Z,46.80
2023-02-19T20:34:28.856Z,46.31
2023-02-19T20:36:57.484Z,46.70
2023-02-19T20:39:28.958Z,46.88
2023-02-19T20:41:59.008Z,47.06
2023-02-19T20:44:28.975Z,46.96
2023-02-19T20:46:59.778Z,46.49
2023-02-19T20:49:30.727Z,46.64
2023-02-19T20:52:01.642Z,46.26
2023-02-19T20:54:32.065Z,46.62
2023-02-19T20:57:03.779Z,47.21
2023-02-19T20:59:35.420Z,46.79
2023-02-19T21:02:39.683Z,47.05
2023-02-19T21:05:09.451Z,47.68
2023-02-19T21:07:37.814Z,47.74
2023-02-19T21:10:06.860Z,47.24
2023-02-19T21:12:36.498Z,47.68
2023-02-19T21:15:05.922Z,47.66
2023-02-19T21:17:34.502Z,47.21
2023-02-19T21:20:02.897Z,47.55
2023-02-19T21:22:31.328Z,47.98
2023-02-19T21:24:59.703Z,47.99
2023-02-19T21:27:28.113Z,48.10
2023-02-19T21:29:56.618Z,47.80
2023-02-19T21:32:25.246Z,48.21
2023-02-19T21:34:53.823Z,47.94
2023-02-19T21:37:22.413Z,47.46
2023-02-19T21:39:50.993Z,47.76
2023-02-19T21:42:19.420Z,48.08
2023-02-19T21:44:48.077Z,47.92
2023-02-19T21:47:16.621Z,48.23
2023-02-19T21:49:45.592Z,48.40
2023-02-19T21:52:14.239Z,47.85
2023-02-19T21:54:43.246Z,47.77
2023-02-19T21:57:11.685Z,47.45
2023-02-19T21:59:40.208Z,48.26
2023-02-19T22:02:10.340Z,48.13
2023-02-19T22:04:38.878Z,47.91
2023-02-19T22:07:07.260Z,48.17
2023-02-19T22:09:35.742Z,48.39
2023-02-19T22:12:05.041Z,47.92
2023-02-19T22:14:33.485Z,47.99
2023-02-19T22:17:02.053Z,47.78
2023-02-19T22:19:30.539Z,48.10
2023-02-19T22:21:59.006Z,48.15
2023-02-19T22:24:27.522Z,48.37
2023-02-19T22:26:57.150Z,48.21
2023-02-19T22:29:25.618Z,48.16
2023-02-19T22:31:54.574Z,47.75
2023-02-19T22:34:23.318Z,47.74
2023-02-19T22:36:51.901Z,47.97
2023-02-19T22:39:25.721Z,48.28
2023-02-19T22:41:54.324Z,48.26
2023-02-19T22:44:22.778Z,48.27
2023-02-19T22:46:56.045Z,48.47
2023-02-19T22:49:24.492Z,48.59
2023-02-19T22:52:04.264Z,48.17
2023-02-19T22:54:32.694Z,48.00
2023-02-19T22:57:01.242Z,48.33
2023-02-19T22:59:30.079Z,48.94
2023-02-19T23:01:58.647Z,48.71
2023-02-19T23:04:27.370Z,49.28
2023-02-19T23:06:55.878Z,48.63
2023-02-19T23:09:27.780Z,48.42
2023-02-19T23:12:08.719Z,48.54
2023-02-19T23:14:37.747Z,48.72
2023-02-19T23:17:06.134Z,48.71
2023-02-19T23:19:35.189Z,48.29
2023-02-19T23:22:03.966Z,48.52
2023-02-19T23:24:32.419Z,48.38
2023-02-19T23:27:00.833Z,48.39
2023-02-19T23:29:30.775Z,48.47
2023-02-19T23:32:00.239Z,48.65
2023-02-19T23:34:28.968Z,48.84
2023-02-19T23:36:59.608Z,48.72
2023-02-19T23:39:28.765Z,48.62
2023-02-19T23:41:57.649Z,48.16
2023-02-19T23:44:26.598Z,48.31
2023-02-19T23:46:55.041Z,48.22
2023-02-19T23:49:23.945Z,48.16
2023-02-19T23:51:52.628Z,48.29
2023-02-19T23:54:21.296Z,48.28
2023-02-19T23:56:49.816Z,48.90
2023-02-19T23:59:18.434Z,49.01
